Bryans Mill, Texas
Current Conditions -  °F | °C
As of 10:55 PM on Sunday 21 Dec 2014 (Local Time) from KOSA Reporting Station
Overcast Overcast  
Wind Chill: 50°   Ceiling: 3000
Heat Index: 50°   Visibility: 7mi
Dew Point: 46°   Wind: 8mph
Humidity: 83%   Direction: 160°SSE
Pressure: 29.85"   Gusts: NA
Location:  33.2006°N, 94.6977°W
Report Text: KOSA 220455Z AUTO 16007KT 7SM SCT016 SCT022 OVC030 10/08 A2985 RMK AO1 T01020075
Loading
Personal Weather Stations






























Interactive Weather Map New forecast layout! Learn more

10-Day Weather Forecast

Advertisements
Track Severe Weather on mobile